createdAt,value
2018-03-15T00:09:03.419Z,3.4
2018-03-15T00:15:01.632Z,3.4
2018-03-15T00:20:01.442Z,3.5
2018-03-15T00:30:05.548Z,3.5
2018-03-15T00:45:03.415Z,3.5
2018-03-15T01:00:02.407Z,3.5
2018-03-15T01:15:01.410Z,3.5
2018-03-15T01:30:03.423Z,3.5
2018-03-15T01:45:04.568Z,3.5
2018-03-15T01:50:01.393Z,3.4
2018-03-15T02:00:03.469Z,3.4
2018-03-15T02:05:01.334Z,3.3
2018-03-15T02:15:02.377Z,3.3
2018-03-15T02:20:08.375Z,3.2
2018-03-15T02:30:04.538Z,3.1
2018-03-15T02:40:04.613Z,3.0
2018-03-15T02:45:01.331Z,2.9
2018-03-15T03:00:06.416Z,2.8
2018-03-15T03:15:01.451Z,2.8
2018-03-15T03:30:01.417Z,2.8
2018-03-15T03:45:02.386Z,2.8
2018-03-15T03:50:04.570Z,2.9
2018-03-15T04:00:06.370Z,2.9
2018-03-15T04:06:01.339Z,3.0
2018-03-15T04:21:01.434Z,3.0
2018-03-15T04:36:01.414Z,2.9
2018-03-15T04:51:01.251Z,2.9
2018-03-15T04:56:01.260Z,2.8
2018-03-15T05:11:01.396Z,2.8
2018-03-15T05:26:01.295Z,2.8
2018-03-15T05:41:01.275Z,2.8
2018-03-15T05:56:01.254Z,2.8
2018-03-15T06:11:01.249Z,2.8
2018-03-15T06:26:01.272Z,2.7
2018-03-15T06:41:01.246Z,2.7
2018-03-15T06:56:01.293Z,2.8
2018-03-15T07:06:01.256Z,2.9
2018-03-15T07:21:01.263Z,2.9
2018-03-15T07:36:01.267Z,2.9
2018-03-15T07:51:01.249Z,2.9
2018-03-15T07:56:01.309Z,3.0
2018-03-15T08:11:01.260Z,3.0
2018-03-15T08:16:01.257Z,3.1
2018-03-15T08:31:02.288Z,3.1
2018-03-15T08:46:01.330Z,3.1
2018-03-15T09:01:01.258Z,3.2
2018-03-15T09:11:02.411Z,3.3
2018-03-15T09:16:01.493Z,3.4
2018-03-15T09:21:04.568Z,3.5
2018-03-15T09:31:01.129Z,3.6
2018-03-15T09:46:01.607Z,3.7
2018-03-15T09:51:01.607Z,3.8
2018-03-15T09:56:01.351Z,3.9
2018-03-15T10:01:02.407Z,4.0
2018-03-15T10:06:01.350Z,4.1
2018-03-15T10:11:01.410Z,4.2
2018-03-15T10:26:02.405Z,4.3
2018-03-15T10:41:05.518Z,4.4
2018-03-15T10:56:07.363Z,4.4
2018-03-15T11:11:05.532Z,4.4
2018-03-15T11:26:02.420Z,4.4
2018-03-15T11:31:01.334Z,4.5
2018-03-15T11:46:01.117Z,4.6
2018-03-15T11:56:02.381Z,4.5
2018-03-15T12:11:01.734Z,4.4
2018-03-15T12:26:07.079Z,4.3
2018-03-15T12:36:02.455Z,4.2
2018-03-15T12:41:02.398Z,4.1
2018-03-15T12:51:01.437Z,4.2
2018-03-15T13:01:01.123Z,4.3
2018-03-15T13:16:01.117Z,4.3
2018-03-15T13:26:06.429Z,4.4
2018-03-15T13:31:01.324Z,4.5
2018-03-15T13:41:01.429Z,4.4
2018-03-15T13:56:02.398Z,4.3
2018-03-15T14:11:01.427Z,4.2
2018-03-15T14:16:01.341Z,4.1
2018-03-15T14:26:01.418Z,3.9
2018-03-15T14:36:02.366Z,3.8
2018-03-15T14:46:01.128Z,3.7
2018-03-15T14:56:02.632Z,3.6
2018-03-15T15:11:01.419Z,3.5
2018-03-15T15:21:02.406Z,3.4
2018-03-15T15:31:01.637Z,3.3
2018-03-15T15:41:01.405Z,3.2
2018-03-15T15:56:01.428Z,3.2
2018-03-15T16:01:06.454Z,3.1
2018-03-15T16:16:01.737Z,3.0
2018-03-15T16:21:01.538Z,2.9
2018-03-15T16:26:06.465Z,2.8
2018-03-15T16:36:06.545Z,2.7
2018-03-15T16:46:01.458Z,2.6
2018-03-15T16:56:01.525Z,2.5
2018-03-15T17:11:01.497Z,2.4
2018-03-15T17:26:01.471Z,2.4
2018-03-15T17:41:01.466Z,2.3
2018-03-15T17:56:01.459Z,2.3
2018-03-15T18:11:01.521Z,2.3
2018-03-15T18:16:02.580Z,2.4
2018-03-15T18:26:01.466Z,2.3
2018-03-15T18:41:02.390Z,2.2
2018-03-15T18:57:03.405Z,2.1
2018-03-15T19:12:01.416Z,2.1
2018-03-15T19:27:01.425Z,2.1
2018-03-15T19:42:03.417Z,2.2
2018-03-15T19:57:02.365Z,2.2
2018-03-15T20:02:06.416Z,2.3
2018-03-15T20:07:01.341Z,2.2
2018-03-15T20:22:01.441Z,2.1
2018-03-15T20:32:01.413Z,2.0
2018-03-15T20:47:02.393Z,1.9
2018-03-15T21:02:02.385Z,1.9
2018-03-15T21:17:02.407Z,1.9
2018-03-15T21:32:01.422Z,1.9
2018-03-15T21:47:01.418Z,1.9
2018-03-15T22:02:06.426Z,1.8
2018-03-15T22:17:01.455Z,1.8
2018-03-15T22:32:01.431Z,1.8
2018-03-15T22:47:01.425Z,1.7
2018-03-15T23:02:01.408Z,1.7
2018-03-15T23:17:01.434Z,1.7
2018-03-15T23:32:02.424Z,1.7
2018-03-15T23:47:06.415Z,1.6
